Time;durP1;ratioP1;P1;durP2;ratioP2;P2;SDS_P1;SDS_P2;PMS_P1;PMS_P2;Temp;Humidity;BMP_temperature;BMP_pressure;BME280_temperature;BME280_humidity;BME280_pressure;Samples;Min_cycle;Max_cycle;Signal;HPM_P1;HPM_P2
2024/02/27 00:00:07;;;;;;;;;;;;;;;6.15;100.00;100513.44;4993318;28;19913;-74
2024/02/27 00:02:33;;;;;;;;;;;;;;;6.21;100.00;100513.78;4993518;28;20312;-74
2024/02/27 00:04:58;;;;;;;;;;;;;;;6.22;100.00;100522.34;4993685;28;19910;-74
2024/02/27 00:07:25;;;;;;;;;;;;;;;6.24;100.00;100524.22;4993000;28;20290;-74
2024/02/27 00:09:51;;;;;;;;;;;;;;;6.30;100.00;100524.50;4995452;28;19913;-75
2024/02/27 00:12:16;;;;;;;;;;;;;;;6.34;100.00;100532.41;4993561;28;19928;-71
2024/02/27 00:14:42;;;;;;;;;;;;;;;6.38;100.00;100522.41;4993269;28;19944;-78
2024/02/27 00:17:07;;;;;;;;;;;;;;;6.34;100.00;100514.44;4993211;28;19972;-77
2024/02/27 00:19:32;;;;;;;;;;;;;;;6.33;100.00;100523.84;4993207;28;19976;-73
2024/02/27 00:21:58;;;;;;;;;;;;;;;6.27;100.00;100521.78;4993479;28;19925;-76
2024/02/27 00:24:23;;;;;;;;;;;;;;;6.23;100.00;100522.44;4993349;28;19913;-74
2024/02/27 00:26:48;;;;;;;;;;;;;;;6.18;100.00;100516.19;4993594;28;19922;-74
2024/02/27 00:29:14;;;;;;;;;;;;;;;6.09;100.00;100516.56;4992058;28;20380;-73
2024/02/27 00:31:39;;;;;;;;;;;;;;;6.09;100.00;100518.22;4992927;28;20356;-72
2024/02/27 00:34:05;;;;;;;;;;;;;;;6.12;100.00;100514.16;4976349;28;20352;-73
2024/02/27 00:36:30;;;;;;;;;;;;;;;6.12;100.00;100518.41;4992950;28;19957;-72
2024/02/27 00:38:55;;;;;;;;;;;;;;;6.14;100.00;100516.78;4992645;28;19985;-73
2024/02/27 00:41:21;;;;;;;;;;;;;;;6.16;100.00;100515.19;4979010;28;19921;-73
2024/02/27 00:43:46;;;;;;;;;;;;;;;6.17;100.00;100510.94;4991949;28;19918;-73
2024/02/27 00:46:12;;;;;;;;;;;;;;;6.17;100.00;100516.97;4992467;28;19917;-73
2024/02/27 00:48:37;;;;;;;;;;;;;;;6.19;100.00;100520.47;4992418;28;19921;-74
2024/02/27 00:51:03;;;;;;;;;;;;;;;6.20;100.00;100518.81;4993013;28;19914;-72
2024/02/27 00:53:28;;;;;;;;;;;;;;;6.17;100.00;100524.66;4992502;28;19918;-73
2024/02/27 00:55:54;;;;;;;;;;;;;;;6.17;100.00;100532.34;4992518;28;19925;-73
2024/02/27 00:58:19;;;;;;;;;;;;;;;6.15;100.00;100531.38;4992621;28;19932;-74
2024/02/27 01:00:45;;;;;;;;;;;;;;;6.13;100.00;100533.84;4992426;28;19921;-73
2024/02/27 01:03:10;;;;;;;;;;;;;;;6.19;100.00;100535.84;4993029;28;20004;-72
2024/02/27 01:05:35;;;;;;;;;;;;;;;6.30;100.00;100536.47;4992557;28;20374;-73
2024/02/27 01:08:01;;;;;;;;;;;;;;;6.29;100.00;100539.81;4992493;28;19953;-73
2024/02/27 01:10:26;;;;;;;;;;;;;;;6.31;100.00;100540.81;4992067;28;19972;-73
2024/02/27 01:12:51;;;;;;;;;;;;;;;6.28;100.00;100538.94;4992290;28;19925;-73
2024/02/27 01:15:17;;;;;;;;;;;;;;;6.17;100.00;100536.56;4991846;28;19921;-72
2024/02/27 01:17:42;;;;;;;;;;;;;;;6.26;100.00;100543.09;4992398;28;20005;-73
2024/02/27 01:20:08;;;;;;;;;;;;;;;6.23;100.00;100545.50;4991764;28;19920;-79
2024/02/27 01:22:33;;;;;;;;;;;;;;;6.26;100.00;100555.91;4992562;28;19960;-72
2024/02/27 01:24:59;;;;;;;;;;;;;;;6.35;100.00;100552.13;4991858;28;19924;-74
2024/02/27 01:27:25;;;;;;;;;;;;;;;6.32;100.00;100547.69;4991981;28;20405;-74
2024/02/27 01:29:51;;;;;;;;;;;;;;;6.31;100.00;100559.63;4991644;28;19968;-73
2024/02/27 01:32:16;;;;;;;;;;;;;;;6.34;100.00;100556.34;4992220;28;19917;-73
2024/02/27 01:34:41;;;;;;;;;;;;;;;6.34;100.00;100553.78;4991975;28;19972;-72
2024/02/27 01:37:07;;;;;;;;;;;;;;;6.36;100.00;100553.88;4984059;28;19917;-74
2024/02/27 01:39:32;;;;;;;;;;;;;;;6.33;100.00;100554.59;4991237;28;19917;-74
2024/02/27 01:41:58;;;;;;;;;;;;;;;6.24;100.00;100549.84;4991438;28;19914;-73
2024/02/27 01:44:24;;;;;;;;;;;;;;;6.26;100.00;100552.50;4994036;28;19917;-73
2024/02/27 01:46:50;;;;;;;;;;;;;;;6.20;100.00;100545.31;4992241;28;19936;-73
2024/02/27 01:49:15;;;;;;;;;;;;;;;6.26;100.00;100548.22;4991656;28;19921;-74
2024/02/27 01:51:42;;;;;;;;;;;;;;;6.22;100.00;100548.88;4991301;28;20317;-73
2024/02/27 01:54:07;;;;;;;;;;;;;;;6.23;100.00;100548.06;4975495;28;19922;-75
2024/02/27 01:56:33;;;;;;;;;;;;;;;6.27;100.00;100544.00;4991487;28;19921;-73
2024/02/27 01:58:59;;;;;;;;;;;;;;;6.20;100.00;100541.88;4990735;28;19917;-72
2024/02/27 02:01:24;;;;;;;;;;;;;;;6.10;100.00;100551.63;4991661;28;19957;-73
2024/02/27 02:03:51;;;;;;;;;;;;;;;6.07;100.00;100548.91;4991733;28;19914;-73
2024/02/27 02:06:16;;;;;;;;;;;;;;;6.12;100.00;100544.03;4979025;28;19975;-73
2024/02/27 02:08:42;;;;;;;;;;;;;;;6.12;100.00;100546.59;4991480;28;19914;-72
2024/02/27 02:11:09;;;;;;;;;;;;;;;6.19;100.00;100552.94;4991159;28;19922;-78
2024/02/27 02:13:35;;;;;;;;;;;;;;;6.19;100.00;100551.25;4990716;28;19922;-73
2024/02/27 02:16:00;;;;;;;;;;;;;;;6.15;100.00;100546.75;4992041;28;19928;-72
2024/02/27 02:18:26;;;;;;;;;;;;;;;6.16;100.00;100553.66;4990585;28;19922;-73
2024/02/27 02:20:51;;;;;;;;;;;;;;;6.20;100.00;100553.00;4990896;28;20373;-74
2024/02/27 02:23:16;;;;;;;;;;;;;;;6.25;100.00;100548.16;4990489;28;20000;-77
2024/02/27 02:25:43;;;;;;;;;;;;;;;6.26;100.00;100553.34;4990889;28;19964;-73
2024/02/27 02:28:09;;;;;;;;;;;;;;;6.29;100.00;100555.22;4990513;28;19932;-74
2024/02/27 02:30:34;;;;;;;;;;;;;;;6.29;100.00;100552.66;4990527;28;19917;-73
2024/02/27 02:32:59;;;;;;;;;;;;;;;6.35;100.00;100552.13;4991179;28;19966;-72
2024/02/27 02:35:25;;;;;;;;;;;;;;;6.39;100.00;100552.38;4990567;28;19922;-73
2024/02/27 02:37:50;;;;;;;;;;;;;;;6.32;100.00;100548.56;4990425;28;19928;-73
2024/02/27 02:40:16;;;;;;;;;;;;;;;6.35;100.00;100557.25;4990393;28;20457;-73
2024/02/27 02:42:42;;;;;;;;;;;;;;;6.34;100.00;100558.03;4990104;28;19918;-74
2024/02/27 02:45:07;;;;;;;;;;;;;;;6.34;100.00;100558.03;4990474;28;19917;-75
2024/02/27 02:47:33;;;;;;;;;;;;;;;6.29;100.00;100558.66;4991246;28;19914;-74
2024/02/27 02:49:58;;;;;;;;;;;;;;;6.29;100.00;100557.78;4990483;28;19918;-73
2024/02/27 02:52:23;;;;;;;;;;;;;;;6.36;100.00;100561.56;4990294;28;19914;-73
2024/02/27 02:54:49;;;;;;;;;;;;;;;6.28;100.00;100563.69;4990126;28;19918;-72
2024/02/27 02:57:15;;;;;;;;;;;;;;;6.21;100.00;100559.91;4989434;28;20016;-73
2024/02/27 02:59:42;;;;;;;;;;;;;;;6.16;100.00;100563.91;4990438;28;20356;-73
2024/02/27 03:02:08;;;;;;;;;;;;;;;6.11;100.00;100573.03;4990601;28;20582;-74
2024/02/27 03:04:33;;;;;;;;;;;;;;;5.99;100.00;100566.41;4990033;28;20009;-73
2024/02/27 03:06:58;;;;;;;;;;;;;;;5.90;100.00;100573.53;4990224;28;19917;-72
2024/02/27 03:09:24;;;;;;;;;;;;;;;5.82;100.00;100565.41;4990779;28;19942;-72
2024/02/27 03:11:49;;;;;;;;;;;;;;;5.89;100.00;100570.88;4990239;28;19992;-74
2024/02/27 03:14:15;;;;;;;;;;;;;;;5.86;100.00;100571.59;4990281;28;20016;-74
2024/02/27 03:16:40;;;;;;;;;;;;;;;5.82;100.00;100580.78;4991150;28;19917;-72
2024/02/27 03:19:06;;;;;;;;;;;;;;;5.84;100.00;100578.28;4990068;28;19921;-75
2024/02/27 03:21:32;;;;;;;;;;;;;;;5.79;100.00;100579.69;4990268;28;19917;-72
2024/02/27 03:23:58;;;;;;;;;;;;;;;5.82;100.00;100582.47;4990191;28;20012;-76
2024/02/27 03:26:24;;;;;;;;;;;;;;;5.88;100.00;100581.91;4990287;28;19933;-74
2024/02/27 03:28:50;;;;;;;;;;;;;;;5.85;100.00;100579.19;4990196;28;20392;-72
2024/02/27 03:31:15;;;;;;;;;;;;;;;5.85;100.00;100585.19;4990446;28;20516;-76
2024/02/27 03:33:40;;;;;;;;;;;;;;;5.83;100.00;100591.88;4990437;28;19965;-73
2024/02/27 03:36:06;;;;;;;;;;;;;;;5.77;100.00;100592.44;4990089;28;20358;-73
2024/02/27 03:38:31;;;;;;;;;;;;;;;5.75;100.00;100588.00;4989709;28;20425;-73
2024/02/27 03:40:57;;;;;;;;;;;;;;;5.76;100.00;100585.53;4990376;28;19914;-73
2024/02/27 03:43:22;;;;;;;;;;;;;;;5.76;100.00;100589.78;4989886;28;20437;-72
2024/02/27 03:45:48;;;;;;;;;;;;;;;5.86;100.00;100594.66;4989917;28;19925;-73
2024/02/27 03:48:13;;;;;;;;;;;;;;;5.95;100.00;100597.72;4990591;28;19913;-73
2024/02/27 03:50:38;;;;;;;;;;;;;;;5.96;100.00;100599.50;4990018;28;19924;-73
2024/02/27 03:53:03;;;;;;;;;;;;;;;5.90;100.00;100599.13;4989764;28;19984;-73
2024/02/27 03:55:29;;;;;;;;;;;;;;;5.96;100.00;100604.63;4970831;28;19921;-74
2024/02/27 03:57:54;;;;;;;;;;;;;;;6.10;100.00;100602.00;4974967;28;20068;-73
2024/02/27 04:00:19;;;;;;;;;;;;;;;6.11;100.00;100603.78;4989759;28;20677;-73
2024/02/27 04:02:45;;;;;;;;;;;;;;;6.07;100.00;100600.16;4989997;28;20404;-72
2024/02/27 04:05:11;;;;;;;;;;;;;;;6.10;100.00;100600.31;4989825;28;19921;-73
2024/02/27 04:07:36;;;;;;;;;;;;;;;6.02;100.00;100608.34;4951862;28;19929;-73
2024/02/27 04:10:01;;;;;;;;;;;;;;;6.01;100.00;100611.72;4993594;28;19928;-76
2024/02/27 04:12:26;;;;;;;;;;;;;;;5.99;100.00;100615.09;4993067;28;19924;-71
2024/02/27 04:14:52;;;;;;;;;;;;;;;6.07;100.00;100612.06;4992187;28;19918;-73
2024/02/27 04:17:18;;;;;;;;;;;;;;;6.03;100.00;100616.16;4993241;28;20012;-74
2024/02/27 04:19:43;;;;;;;;;;;;;;;5.98;100.00;100617.50;4992794;28;20440;-78
2024/02/27 04:22:09;;;;;;;;;;;;;;;5.98;100.00;100607.25;4992884;28;19921;-75
2024/02/27 04:24:35;;;;;;;;;;;;;;;5.93;100.00;100613.81;4993097;28;19918;-72
2024/02/27 04:27:00;;;;;;;;;;;;;;;5.88;100.00;100608.44;4993120;28;20074;-72
2024/02/27 04:29:26;;;;;;;;;;;;;;;5.88;100.00;100617.78;4993861;28;20388;-73
2024/02/27 04:31:51;;;;;;;;;;;;;;;5.93;100.00;100621.50;4992673;28;19924;-73
2024/02/27 04:34:16;;;;;;;;;;;;;;;5.93;100.00;100619.84;4992718;28;19924;-72
2024/02/27 04:36:46;;;;;;;;;;;;;;;5.95;100.00;100617.34;4992596;28;19917;-73
2024/02/27 04:39:13;;;;;;;;;;;;;;;5.96;100.00;100614.00;4992764;28;19913;-72
2024/02/27 04:41:38;;;;;;;;;;;;;;;5.97;100.00;100621.78;4993137;28;19919;-73
2024/02/27 04:44:03;;;;;;;;;;;;;;;5.97;100.00;100620.91;4992862;28;19925;-73
2024/02/27 04:46:29;;;;;;;;;;;;;;;5.97;100.00;100621.78;4992500;28;19914;-73
2024/02/27 04:48:54;;;;;;;;;;;;;;;6.01;100.00;100627.09;4992400;28;20309;-72
2024/02/27 04:51:19;;;;;;;;;;;;;;;6.08;100.00;100627.56;4993279;28;19913;-78
2024/02/27 04:53:45;;;;;;;;;;;;;;;6.17;100.00;100629.75;4992159;28;19925;-74
2024/02/27 04:56:10;;;;;;;;;;;;;;;6.15;100.00;100634.78;4992713;28;20296;-73
2024/02/27 04:58:36;;;;;;;;;;;;;;;6.15;100.00;100641.59;4992184;28;20481;-72
2024/02/27 05:01:02;;;;;;;;;;;;;;;6.15;100.00;100641.59;4992878;28;20334;-72
2024/02/27 05:03:27;;;;;;;;;;;;;;;6.16;100.00;100638.25;4992351;28;20377;-73
2024/02/27 05:05:53;;;;;;;;;;;;;;;6.17;100.00;100640.03;4992075;28;19924;-73
2024/02/27 05:08:18;;;;;;;;;;;;;;;6.09;100.00;100648.94;4978543;28;19965;-72
2024/02/27 05:10:44;;;;;;;;;;;;;;;6.08;100.00;100645.50;4992133;28;20324;-72
2024/02/27 05:13:09;;;;;;;;;;;;;;;6.12;100.00;100661.94;4993209;28;19924;-72
2024/02/27 05:15:34;;;;;;;;;;;;;;;6.21;100.00;100657.34;4991602;28;20412;-73
2024/02/27 05:18:00;;;;;;;;;;;;;;;6.27;100.00;100657.69;4991316;28;20021;-74
2024/02/27 05:20:26;;;;;;;;;;;;;;;6.35;100.00;100658.13;4989185;28;19929;-73
2024/02/27 05:22:52;;;;;;;;;;;;;;;6.31;100.00;100664.75;4991435;28;19914;-74
2024/02/27 05:25:17;;;;;;;;;;;;;;;6.39;100.00;100669.44;4991856;28;19914;-73
2024/02/27 05:27:43;;;;;;;;;;;;;;;6.39;100.00;100675.47;4992304;28;19965;-74
2024/02/27 05:30:08;;;;;;;;;;;;;;;6.40;100.00;100677.22;4991607;28;20496;-74
2024/02/27 05:32:34;;;;;;;;;;;;;;;6.42;100.00;100683.31;4992519;28;20023;-73
2024/02/27 05:34:59;;;;;;;;;;;;;;;6.52;100.00;100691.53;4992243;28;20368;-74
2024/02/27 05:37:24;;;;;;;;;;;;;;;6.51;100.00;100698.34;4992765;28;20000;-73
2024/02/27 05:39:50;;;;;;;;;;;;;;;6.45;100.00;100698.88;4991337;28;20048;-73
2024/02/27 05:42:15;;;;;;;;;;;;;;;6.32;100.00;100691.28;4992063;28;19957;-74
2024/02/27 05:44:41;;;;;;;;;;;;;;;6.30;100.00;100693.75;4992566;28;20373;-73
2024/02/27 05:47:06;;;;;;;;;;;;;;;6.38;100.00;100701.00;4973166;28;20502;-76
2024/02/27 05:49:31;;;;;;;;;;;;;;;6.47;100.00;100704.97;4991824;28;19948;-75
2024/02/27 05:51:57;;;;;;;;;;;;;;;6.53;100.00;100707.03;4991842;28;19929;-73
2024/02/27 05:54:22;;;;;;;;;;;;;;;6.58;100.00;100715.84;4991794;28;19932;-74
2024/02/27 05:56:48;;;;;;;;;;;;;;;6.62;100.00;100715.22;4991928;28;19917;-76
2024/02/27 05:59:15;;;;;;;;;;;;;;;6.71;100.00;100721.69;4992046;28;19921;-73
2024/02/27 06:01:40;;;;;;;;;;;;;;;6.76;100.00;100721.13;4991546;28;19925;-73
2024/02/27 06:04:05;;;;;;;;;;;;;;;6.75;100.00;100734.78;4991520;28;19918;-74
2024/02/27 06:06:31;;;;;;;;;;;;;;;6.76;100.00;100751.06;4987961;28;19964;-74
2024/02/27 06:08:56;;;;;;;;;;;;;;;6.77;100.00;100743.44;4989928;28;19977;-75
2024/02/27 06:11:21;;;;;;;;;;;;;;;6.80;100.00;100747.84;4991242;28;20389;-74
2024/02/27 06:13:47;;;;;;;;;;;;;;;6.77;100.00;100751.13;4991059;28;19996;-74
2024/02/27 06:16:12;;;;;;;;;;;;;;;6.71;100.00;100745.66;4990549;28;19918;-74
2024/02/27 06:18:41;;;;;;;;;;;;;;;6.68;100.00;100749.72;4989797;28;19921;-74
2024/02/27 06:23:51;;;;;;;;;;;;;;;6.72;100.00;100750.00;4989431;28;20489;-75
2024/02/27 06:26:17;;;;;;;;;;;;;;;6.78;100.00;100752.03;4990979;28;19953;-73
2024/02/27 06:28:42;;;;;;;;;;;;;;;6.85;100.00;100756.69;4987960;28;19964;-75
2024/02/27 06:31:09;;;;;;;;;;;;;;;6.87;100.00;100756.81;4986608;28;19921;-74
2024/02/27 06:33:35;;;;;;;;;;;;;;;6.77;100.00;100757.97;4987608;28;19922;-75
2024/02/27 06:36:00;;;;;;;;;;;;;;;6.87;100.00;100760.25;4990478;28;20317;-74
2024/02/27 06:38:26;;;;;;;;;;;;;;;6.94;100.00;100767.50;4990820;28;20007;-74
2024/02/27 06:40:51;;;;;;;;;;;;;;;6.98;100.00;100773.69;4990833;28;19969;-73
2024/02/27 06:43:17;;;;;;;;;;;;;;;7.01;100.00;100765.28;4987513;28;19926;-74
2024/02/27 06:45:42;;;;;;;;;;;;;;;7.08;100.00;100775.97;4990189;28;19918;-73
2024/02/27 06:48:09;;;;;;;;;;;;;;;7.09;100.00;100784.53;4990225;28;19921;-71
2024/02/27 06:50:35;;;;;;;;;;;;;;;7.07;100.00;100784.47;4990598;28;20406;-72
2024/02/27 06:53:00;;;;;;;;;;;;;;;7.11;100.00;100776.13;4990725;28;19917;-73
2024/02/27 06:55:25;;;;;;;;;;;;;;;7.15;100.00;100786.59;4990845;28;20407;-78
2024/02/27 06:57:51;;;;;;;;;;;;;;;7.25;100.00;100783.72;4990801;28;20375;-73
2024/02/27 07:00:16;;;;;;;;;;;;;;;7.28;100.00;100789.91;4991331;28;20371;-74
2024/02/27 07:02:42;;;;;;;;;;;;;;;7.34;100.00;100791.94;4991239;28;20382;-73
2024/02/27 07:05:07;;;;;;;;;;;;;;;7.42;100.00;100797.50;4977816;28;19924;-74
2024/02/27 07:07:33;;;;;;;;;;;;;;;7.49;100.00;100794.47;4991079;28;19924;-72
2024/02/27 07:09:58;;;;;;;;;;;;;;;7.56;100.00;100799.16;4990722;28;19917;-73
2024/02/27 07:12:24;;;;;;;;;;;;;;;7.63;100.00;100805.50;4991008;28;20365;-73
2024/02/27 07:14:49;;;;;;;;;;;;;;;7.51;100.00;100813.41;4990718;28;19918;-74
2024/02/27 07:17:16;;;;;;;;;;;;;;;7.52;100.00;100817.75;4990484;28;20309;-73
2024/02/27 07:19:43;;;;;;;;;;;;;;;7.59;100.00;100827.56;4991031;28;19992;-74
2024/02/27 07:22:08;;;;;;;;;;;;;;;7.61;100.00;100836.25;4990451;28;19918;-72
2024/02/27 07:24:34;;;;;;;;;;;;;;;7.63;100.00;100841.47;4990489;28;19968;-72
2024/02/27 07:26:59;;;;;;;;;;;;;;;7.59;100.00;100844.69;4990375;28;20004;-72
2024/02/27 07:29:24;;;;;;;;;;;;;;;7.54;100.00;100841.84;4990441;28;19913;-72
2024/02/27 07:31:50;;;;;;;;;;;;;;;7.56;100.00;100847.06;4990708;28;19925;-72
2024/02/27 07:34:17;;;;;;;;;;;;;;;7.54;100.00;100844.41;4990418;28;19925;-74
2024/02/27 07:36:45;;;;;;;;;;;;;;;7.53;100.00;100840.06;4990462;28;19917;-73
2024/02/27 07:39:10;;;;;;;;;;;;;;;7.55;100.00;100841.06;4987143;28;20008;-74
2024/02/27 07:41:37;;;;;;;;;;;;;;;7.60;100.00;100839.63;4990430;28;20448;-73
2024/02/27 07:44:03;;;;;;;;;;;;;;;7.61;100.00;100843.97;4992781;28;20059;-73
2024/02/27 07:46:30;;;;;;;;;;;;;;;7.72;100.00;100838.50;4994254;28;20036;-73
2024/02/27 07:48:56;;;;;;;;;;;;;;;7.80;100.00;100836.34;4994012;28;19918;-78
2024/02/27 07:51:31;;;;;;;;;;;;;;;7.92;100.00;100832.78;4994261;28;19925;-72
2024/02/27 07:53:56;;;;;;;;;;;;;;;7.96;100.00;100844.06;4994146;28;19968;-76
2024/02/27 07:56:22;;;;;;;;;;;;;;;8.00;100.00;100840.88;4949643;28;19964;-73
2024/02/27 07:58:48;;;;;;;;;;;;;;;7.99;100.00;100843.34;4993961;28;20009;-73
2024/02/27 08:01:13;;;;;;;;;;;;;;;8.04;100.00;100831.66;4994695;28;19913;-73
2024/02/27 08:03:39;;;;;;;;;;;;;;;8.13;100.00;100836.41;4994150;28;19917;-73
2024/02/27 08:06:07;;;;;;;;;;;;;;;8.20;100.00;100829.06;4998795;28;19924;-73
2024/02/27 08:08:32;;;;;;;;;;;;;;;8.21;100.00;100822.22;4993994;28;19953;-76
2024/02/27 08:10:58;;;;;;;;;;;;;;;8.30;100.00;100821.81;4994392;28;20444;-72
2024/02/27 08:13:23;;;;;;;;;;;;;;;8.33;100.00;100828.00;4994389;28;19914;-76
2024/02/27 08:15:48;;;;;;;;;;;;;;;8.48;100.00;100833.09;4993789;28;19922;-73
2024/02/27 08:18:14;;;;;;;;;;;;;;;8.63;100.00;100835.56;4993930;28;19917;-74
2024/02/27 08:20:39;;;;;;;;;;;;;;;8.67;100.00;100837.50;4994174;28;19961;-73
2024/02/27 08:23:04;;;;;;;;;;;;;;;8.68;100.00;100840.97;4993404;28;19918;-72
2024/02/27 08:25:30;;;;;;;;;;;;;;;8.65;100.00;100843.34;4993835;28;19963;-76
2024/02/27 08:27:55;;;;;;;;;;;;;;;8.61;100.00;100841.44;4993628;28;19914;-73
2024/02/27 08:30:20;;;;;;;;;;;;;;;8.70;100.00;100847.06;4994025;28;20721;-73
2024/02/27 08:32:46;;;;;;;;;;;;;;;8.83;100.00;100846.88;4993505;28;19940;-72
2024/02/27 08:35:11;;;;;;;;;;;;;;;9.04;100.00;100843.59;4993604;28;19928;-73
2024/02/27 08:37:36;;;;;;;;;;;;;;;9.04;100.00;100844.47;4993659;28;20008;-73
2024/02/27 08:40:02;;;;;;;;;;;;;;;9.02;100.00;100842.63;4986243;28;19929;-73
2024/02/27 08:42:27;;;;;;;;;;;;;;;9.09;100.00;100846.41;4993520;28;19921;-72
2024/02/27 08:44:53;;;;;;;;;;;;;;;9.17;100.00;100840.81;4993062;28;19921;-72
2024/02/27 08:47:18;;;;;;;;;;;;;;;9.36;100.00;100842.59;4993227;28;19972;-72
2024/02/27 08:49:43;;;;;;;;;;;;;;;9.59;100.00;100847.06;4981890;28;19914;-72
2024/02/27 08:52:09;;;;;;;;;;;;;;;9.78;100.00;100846.22;4993126;28;19918;-72
2024/02/27 08:54:34;;;;;;;;;;;;;;;9.76;100.00;100847.81;4992063;28;19917;-72
2024/02/27 08:56:59;;;;;;;;;;;;;;;9.80;100.00;100845.47;4993483;28;19968;-72
2024/02/27 08:59:25;;;;;;;;;;;;;;;9.93;100.00;100841.78;4992819;28;19914;-72
2024/02/27 09:01:50;;;;;;;;;;;;;;;10.02;100.00;100841.31;4992546;28;20000;-71
2024/02/27 09:04:15;;;;;;;;;;;;;;;10.10;100.00;100844.22;4993042;28;19996;-73
2024/02/27 09:06:41;;;;;;;;;;;;;;;10.25;100.00;100847.47;4992868;28;19933;-72
2024/02/27 09:09:07;;;;;;;;;;;;;;;10.39;100.00;100842.09;4993366;28;19921;-72
2024/02/27 09:11:33;;;;;;;;;;;;;;;10.39;100.00;100842.94;4985076;28;19924;-72
2024/02/27 09:13:59;;;;;;;;;;;;;;;10.39;100.00;100842.94;4993059;28;20425;-72
2024/02/27 09:16:25;;;;;;;;;;;;;;;10.47;100.00;100845.91;4993050;28;19976;-72
2024/02/27 09:18:50;;;;;;;;;;;;;;;10.63;100.00;100843.16;4992525;28;19917;-72
2024/02/27 09:21:16;;;;;;;;;;;;;;;10.72;100.00;100846.94;4992329;28;19917;-72
2024/02/27 09:23:41;;;;;;;;;;;;;;;10.88;100.00;100845.88;4992270;28;19917;-71
2024/02/27 09:26:06;;;;;;;;;;;;;;;10.98;100.00;100848.03;4984055;28;19967;-76
2024/02/27 09:28:32;;;;;;;;;;;;;;;11.12;100.00;100843.44;4997044;28;19925;-72
2024/02/27 09:30:59;;;;;;;;;;;;;;;11.17;100.00;100845.34;4992147;28;19925;-72
2024/02/27 09:33:24;;;;;;;;;;;;;;;11.21;100.00;100848.09;4992272;28;20432;-72
2024/02/27 09:35:50;;;;;;;;;;;;;;;11.30;100.00;100843.28;4992630;28;20008;-70
2024/02/27 09:38:15;;;;;;;;;;;;;;;11.25;100.00;100839.63;4991938;28;19921;-71
2024/02/27 09:40:42;;;;;;;;;;;;;;;11.40;100.00;100841.94;4991982;28;19928;-72
2024/02/27 09:43:15;;;;;;;;;;;;;;;11.53;100.00;100841.59;4991863;28;19925;-72
2024/02/27 09:45:40;;;;;;;;;;;;;;;11.69;100.00;100837.91;4991045;28;19922;-72
2024/02/27 09:48:06;;;;;;;;;;;;;;;11.84;100.00;100845.38;4992945;28;19968;-73
2024/02/27 09:50:33;;;;;;;;;;;;;;;11.92;100.00;100843.06;4990250;28;19921;-74
2024/02/27 09:53:00;;;;;;;;;;;;;;;11.92;100.00;100845.66;4991672;28;20045;-73
2024/02/27 09:55:25;;;;;;;;;;;;;;;12.09;100.00;100831.66;4991446;28;19918;-72
2024/02/27 09:57:51;;;;;;;;;;;;;;;12.26;100.00;100828.81;4991201;28;19968;-71
2024/02/27 10:00:17;;;;;;;;;;;;;;;12.43;100.00;100819.06;4990989;28;19921;-72
2024/02/27 10:02:45;;;;;;;;;;;;;;;12.52;100.00;100823.66;4991390;28;20381;-73
2024/02/27 10:05:14;;;;;;;;;;;;;;;12.46;100.00;100820.03;4991705;28;20382;-72
2024/02/27 10:07:39;;;;;;;;;;;;;;;12.62;100.00;100817.97;4987303;28;20471;-73
2024/02/27 10:10:05;;;;;;;;;;;;;;;12.84;100.00;100822.16;4990972;28;19964;-74
2024/02/27 10:12:30;;;;;;;;;;;;;;;13.02;100.00;100815.81;4990561;28;20305;-75
2024/02/27 10:14:56;;;;;;;;;;;;;;;13.10;100.00;100825.59;5005582;28;19918;-72
2024/02/27 10:17:21;;;;;;;;;;;;;;;13.31;100.00;100819.38;4990947;28;19928;-71
2024/02/27 10:19:48;;;;;;;;;;;;;;;13.42;100.00;100811.94;4991696;28;19918;-74
2024/02/27 10:22:13;;;;;;;;;;;;;;;13.56;100.00;100815.84;4991261;28;19925;-72
2024/02/27 10:24:39;;;;;;;;;;;;;;;13.77;100.00;100814.72;4990661;28;19922;-73
2024/02/27 10:27:07;;;;;;;;;;;;;;;13.89;100.00;100811.59;4990497;28;20373;-73
2024/02/27 10:29:33;;;;;;;;;;;;;;;13.95;100.00;100806.59;4979077;28;19918;-74
2024/02/27 10:31:59;;;;;;;;;;;;;;;13.92;100.00;100803.91;4990596;28;19918;-73
2024/02/27 10:34:25;;;;;;;;;;;;;;;13.84;100.00;100805.41;4990817;28;19921;-72
2024/02/27 10:36:57;;;;;;;;;;;;;;;13.77;100.00;100800.84;4990567;28;19922;-73
2024/02/27 10:39:22;;;;;;;;;;;;;;;13.66;100.00;100801.44;4990509;28;20021;-74
2024/02/27 10:41:47;;;;;;;;;;;;;;;13.67;100.00;100798.00;4990366;28;20392;-72
2024/02/27 10:44:14;;;;;;;;;;;;;;;13.73;100.00;100797.28;4991335;28;19917;-72
2024/02/27 10:46:40;;;;;;;;;;;;;;;13.81;100.00;100792.34;4956884;28;19925;-73
2024/02/27 10:49:05;;;;;;;;;;;;;;;13.95;100.00;100787.53;4990493;28;20012;-72
2024/02/27 10:51:31;;;;;;;;;;;;;;;13.95;100.00;100784.94;4990209;28;20008;-74
2024/02/27 10:53:57;;;;;;;;;;;;;;;14.05;100.00;100785.22;4979541;28;19918;-72
2024/02/27 10:56:23;;;;;;;;;;;;;;;14.19;100.00;100783.03;4990189;28;19913;-71
2024/02/27 10:58:50;;;;;;;;;;;;;;;14.27;100.00;100780.63;4990608;28;19917;-71
2024/02/27 11:01:16;;;;;;;;;;;;;;;14.22;100.00;100782.25;4987461;28;20413;-73
2024/02/27 11:03:43;;;;;;;;;;;;;;;14.32;100.00;100779.03;4990243;28;19917;-73
2024/02/27 11:06:10;;;;;;;;;;;;;;;14.35;100.00;100784.31;4991091;28;19953;-72
2024/02/27 11:08:36;;;;;;;;;;;;;;;14.55;100.00;100786.53;4990257;28;20719;-75
2024/02/27 11:11:01;;;;;;;;;;;;;;;14.80;100.00;100782.00;4989838;28;20021;-77
2024/02/27 11:13:27;;;;;;;;;;;;;;;14.99;100.00;100781.63;4990114;28;19956;-74
2024/02/27 11:15:53;;;;;;;;;;;;;;;15.14;100.00;100777.59;4990334;28;20025;-72
2024/02/27 11:18:21;;;;;;;;;;;;;;;15.26;100.00;100777.88;4989125;28;20008;-74
2024/02/27 11:20:47;;;;;;;;;;;;;;;15.40;100.00;100772.13;4989847;28;20042;-71
2024/02/27 11:23:13;;;;;;;;;;;;;;;15.40;100.00;100769.53;4974308;28;19918;-70
2024/02/27 11:25:39;;;;;;;;;;;;;;;15.45;100.00;100767.88;4996507;28;19953;-73
2024/02/27 11:28:05;;;;;;;;;;;;;;;15.48;100.00;100767.97;4989821;28;20408;-72
2024/02/27 11:30:31;;;;;;;;;;;;;;;15.53;100.00;100761.13;4990571;28;19913;-71
2024/02/27 11:32:57;;;;;;;;;;;;;;;15.74;100.00;100759.81;4988754;28;19918;-72
2024/02/27 11:35:24;;;;;;;;;;;;;;;15.77;100.00;100758.16;4990548;28;20008;-71
2024/02/27 11:37:49;;;;;;;;;;;;;;;15.88;100.00;100763.63;4989748;28;20016;-71
2024/02/27 11:40:35;;;;;;;;;;;;;;;15.96;100.00;100769.88;4989769;28;20017;-72
2024/02/27 11:43:01;;;;;;;;;;;;;;;15.97;100.00;100763.78;4987769;28;19918;-73
2024/02/27 11:45:27;;;;;;;;;;;;;;;16.01;100.00;100772.53;4990548;28;19924;-69
2024/02/27 11:47:53;;;;;;;;;;;;;;;16.04;100.00;100764.81;4983541;28;19937;-72
2024/02/27 11:50:37;;;;;;;;;;;;;;;16.06;100.00;100768.28;4990135;28;19952;-73
2024/02/27 11:53:20;;;;;;;;;;;;;;;15.88;100.00;100767.97;4989109;28;19968;-72
2024/02/27 11:55:55;;;;;;;;;;;;;;;16.00;99.95;100768.22;4985902;28;19924;-73
2024/02/27 11:58:22;;;;;;;;;;;;;;;16.14;99.96;100763.25;4987700;28;20320;-74
2024/02/27 12:00:48;;;;;;;;;;;;;;;16.23;99.48;100760.81;4985177;28;19926;-70
2024/02/27 12:03:14;;;;;;;;;;;;;;;16.34;99.44;100755.81;4981665;28;19922;-73
2024/02/27 12:05:39;;;;;;;;;;;;;;;16.29;99.04;100750.50;4981756;28;19922;-72
2024/02/27 12:08:05;;;;;;;;;;;;;;;16.27;98.84;100752.19;4988199;28;19917;-74
2024/02/27 12:10:30;;;;;;;;;;;;;;;16.41;99.41;100754.16;4989185;28;20374;-71
2024/02/27 12:12:56;;;;;;;;;;;;;;;16.49;98.35;100750.84;4990546;28;19968;-74
2024/02/27 12:15:22;;;;;;;;;;;;;;;16.52;97.54;100750.00;4989196;28;20012;-71
2024/02/27 12:17:48;;;;;;;;;;;;;;;16.65;98.27;100740.69;4989263;28;20012;-70
2024/02/27 12:20:14;;;;;;;;;;;;;;;16.77;97.83;100745.22;4987281;28;21905;-72
2024/02/27 12:22:44;;;;;;;;;;;;;;;16.81;97.59;100739.22;4986782;28;19965;-74
2024/02/27 12:25:10;;;;;;;;;;;;;;;16.81;97.14;100739.22;4954980;28;19914;-74
2024/02/27 12:27:36;;;;;;;;;;;;;;;16.89;96.76;100727.16;4989900;28;20339;-73
2024/02/27 12:30:11;;;;;;;;;;;;;;;17.02;96.27;100723.00;4957921;28;20004;-72